Estació municipal de Les Masies de Roda (Osona, Ter)

Consulta les dades en temps real de l'estació municipal de Les Masies de Roda





Hora UTC 09:05
Temperatura 27.0 ºC
Sòl 15 cm 32.4 ºC
Humitat 54.7 %
Pressió 1022.9 hPa
Pluja 0.0 mm
Velocitat vent 2.7 km/h
Direcció vent ESE
Radiació solar 154.7 W/m²

Dades diàries 2026-09-05



Hora UTC (hivern +1h; estiu +2h)
Temperatura (ºC) Humitat (%) Pressió (hPa) Velocitat vent (km/h) Precipitació (mm) Radiació solar (W/m²)
Hora UTC Aire Sòl 15 cm Humitat Pressió Vel. Dir. Vel. Max Dir. Intent. màx 5 min. Rad. Sol.
00:05 20.1 17.5 83.1 1021.4 0.0 NNE 0.0 NNW 0.0 19.2
00:10 20.1 17.3 83.9 1021.6 0.0 NNE 0.0 NNW 0.0 19.1
00:15 20.2 17.2 83.1 1021.4 1.1 E 3.9 E 0.0 17.4
00:20 19.9 17.1 83.7 1021.6 0.0 NNE 0.0 E 0.0 17.4
00:25 19.8 17.1 84.5 1021.5 0.0 NNE 0.0 E 0.0 17.2
00:30 19.8 17.0 84.4 1021.4 0.9 ENE 3.2 E 0.0 18.6
00:35 19.8 16.9 83.8 1021.5 0.8 ENE 2.8 ENE 0.0 16.1
00:40 19.7 16.9 83.8 1021.4 0.1 ENE 1.8 ENE 0.0 15.6
00:45 19.6 16.8 84.9 1021.5 0.5 ENE 2.8 ENE 0.0 12.9
00:50 19.5 16.8 84.3 1021.3 1.7 N 2.8 NNW 0.0 13.7
00:55 19.5 16.7 85.1 1021.5 0.2 N 1.8 N 0.0 14.1
01:00 19.7 16.7 83.7 1021.4 0.0 NNE 0.0 N 0.0 13.9
01:05 19.5 16.6 84.2 1021.5 0.0 NNE 0.0 N 0.0 16.0
01:10 19.2 16.5 86.0 1021.5 1.1 NNW 2.5 NW 0.0 16.8
01:15 19.3 16.5 85.9 1021.4 0.0 NNE 0.0 NNE 0.0 16.1
01:20 19.2 16.5 85.6 1021.6 0.0 NNE 0.0 N 0.0 15.9
01:25 19.1 16.4 85.5 1021.4 0.0 NNE 0.0 N 0.0 14.5
01:30 18.9 16.3 86.6 1021.6 0.0 NNE 0.0 N 0.0 12.7
01:35 18.8 16.2 86.4 1021.4 0.0 NNE 0.0 N 0.0 11.0
01:40 18.7 16.2 87.3 1021.7 0.0 NNE 0.0 N 0.0 8.3
01:45 18.7 16.1 87.3 1021.4 0.0 NNE 0.0 N 0.0 6.8
01:50 18.7 16.1 86.8 1021.6 0.0 NNE 0.0 N 0.0 6.2
01:55 18.6 16.0 86.1 1021.5 0.0 NNE 0.0 ENE 0.0 5.7
02:00 18.4 15.9 87.5 1021.6 0.0 NNE 0.0 N 0.0 2.9
02:05 18.3 15.8 88.1 1021.6 0.0 NNE 0.0 N 0.0 0.9
02:10 18.2 15.7 88.5 1021.6 0.0 NNE 0.0 N 0.0 0.2
02:15 18.1 15.7 88.7 1021.6 1.4 ENE 2.8 ENE 0.0 0.3
02:20 18.2 15.6 88.9 1021.4 0.8 NE 2.8 NNE 0.0 0.1
02:25 18.1 15.7 88.5 1021.6 0.1 NE 1.8 NE 0.0 0.1
02:30 18.0 15.6 89.1 1021.4 0.6 NW 2.5 NW 0.0 0.1
02:35 18.0 15.6 89.7 1021.6 0.1 NW 1.4 NW 0.0 0.1
02:40 18.1 15.5 89.5 1021.4 0.0 NNE 0.0 NW 0.0 0.1
02:45 18.2 15.5 89.6 1021.6 0.0 NNE 0.0 NW 0.0 192.2
02:50 18.1 15.6 88.6 1021.4 0.0 NNE 0.0 NW 0.0 230.4
02:55 18.0 15.6 89.3 1021.6 0.0 NNE 0.0 NW 0.0 234.9
03:00 17.9 15.6 90.5 1021.5 0.0 NNE 0.0 NW 0.0 258.1
03:05 18.0 15.6 89.9 1021.6 0.0 NNE 0.0 NW 0.0 239.2
03:10 17.9 15.6 89.1 1021.5 0.0 NNE 0.0 NW 0.0 243.4
03:15 17.7 15.5 90.2 1021.6 1.0 N 3.2 N 0.0 250.5
03:20 17.9 15.5 90.4 1021.6 0.1 NNE 2.1 NNE 0.0 244.9
03:25 17.8 15.5 89.9 1021.6 0.0 NNE 0.0 NNE 0.0 243.9
03:30 17.6 15.4 89.6 1021.8 0.7 ENE 3.2 ENE 0.0 241.8
03:35 17.6 15.4 90.7 1021.6 0.0 NNE 0.0 ENE 0.0 246.4
03:40 17.7 15.4 91.2 1021.7 0.1 NE 1.8 NE 0.0 247.7
03:45 17.8 15.4 90.0 1021.5 0.7 ESE 2.8 E 0.0 241.8
03:50 17.7 15.4 90.4 1021.7 0.0 ENE 1.4 ENE 0.0 248.0
03:55 17.7 15.4 90.7 1021.5 0.2 ENE 1.8 ENE 0.0 241.1
04:00 17.6 15.4 90.3 1021.7 0.5 WNW 2.8 WNW 0.0 240.7
04:05 17.4 15.3 91.1 1021.5 1.2 WNW 2.8 NW 0.0 243.4
04:10 17.5 15.3 91.7 1021.7 0.3 NNW 2.5 NNW 0.0 247.8
04:15 17.6 15.2 91.7 1021.5 0.0 NNE 0.0 NNE 0.0 251.2
04:20 17.8 15.2 90.6 1021.7 0.8 WNW 3.2 WNW 0.0 252.5
04:25 17.5 15.2 89.3 1021.6 1.5 WNW 2.8 WNW 0.0 251.5
04:30 17.3 15.1 91.3 1021.7 1.7 NW 3.2 NW 0.0 256.1
04:35 17.3 15.0 92.0 1021.7 0.9 NNE 2.1 NNW 0.0 260.2
04:40 17.5 14.9 91.9 1021.7 0.0 NNE 0.0 NE 0.0 252.5
04:45 17.6 15.1 91.5 1021.8 0.2 NNE 1.8 NNE 0.0 248.5
04:50 17.4 15.2 90.4 1021.8 0.2 NNE 1.8 NNE 0.0 245.2
04:55 17.2 15.1 90.8 1021.8 0.0 NNE 0.0 NNE 0.0 252.9
05:00 17.0 14.9 91.3 1021.8 0.0 NNE 0.0 NNE 0.0 246.6
05:05 16.9 14.8 92.0 1021.9 0.0 NNE 0.0 NNE 0.0 245.5
05:10 16.9 14.8 92.7 1021.8 0.0 NNE 0.0 NNE 0.0 249.5
05:15 16.9 14.8 92.5 1022.0 0.0 NNE 0.0 NNE 0.0 252.3
05:20 17.0 14.7 93.5 1021.9 0.0 NNE 0.0 NNE 0.0 250.6
05:25 17.0 14.7 92.5 1022.1 0.0 NNE 0.0 NNE 0.0 249.9
05:30 16.7 14.7 92.7 1021.9 0.0 NNE 0.0 NNE 0.0 249.4
05:35 16.7 14.7 93.3 1022.0 0.0 NNE 0.0 NNE 0.0 249.6
05:40 16.7 14.7 93.6 1021.9 0.0 NNE 0.0 NNE 0.0 253.5
05:45 16.7 14.8 93.2 1022.2 0.0 NNE 0.0 NNE 0.0 262.0
05:50 16.8 14.9 93.6 1022.0 0.0 NNE 0.0 NNE 0.0 257.4
05:55 16.9 15.0 93.6 1022.2 0.0 NNE 0.0 NNE 0.0 253.3
06:00 16.8 15.1 93.0 1022.1 2.1 W 3.9 W 0.0 257.2
06:05 16.9 15.1 93.8 1022.2 0.0 NNE 0.0 W 0.0 274.4
06:10 17.2 15.3 94.3 1022.2 1.4 WNW 3.5 WNW 0.0 271.0
06:15 17.0 15.5 93.0 1022.4 1.0 NW 3.5 NW 0.0 262.4
06:20 17.0 15.7 92.9 1022.2 0.0 NNE 0.0 NNW 0.0 261.2
06:25 17.3 15.8 93.1 1022.4 0.0 NNE 0.0 NE 0.0 260.8
06:30 17.6 16.2 92.4 1022.3 0.0 NNE 0.0 NE 0.0 263.5
06:35 17.7 16.5 91.9 1022.5 1.8 WNW 2.8 WNW 0.0 282.8
06:40 18.0 16.8 91.5 1022.5 2.1 WNW 3.5 W 0.0 212.6
06:45 18.3 17.2 91.2 1022.6 1.2 W 3.5 W 0.0 172.6
06:50 18.7 17.7 89.5 1022.6 0.0 NNE 0.0 W 0.0 13.3
06:55 19.2 18.3 86.5 1022.6 0.5 WNW 2.5 WNW 0.0 21.2
07:00 19.8 18.9 82.5 1022.8 0.0 NNE 0.0 WNW 0.0 27.5
07:05 20.3 19.3 80.5 1022.6 0.0 NNE 0.0 ENE 0.0 32.0
07:10 20.8 19.9 77.0 1022.8 1.7 SE 3.5 SE 0.0 28.7
07:15 21.2 20.4 74.6 1022.6 0.4 S 2.8 SE 0.0 37.5
07:20 21.3 20.9 75.8 1022.8 1.9 W 3.5 WSW 0.0 42.0
07:25 21.4 21.6 74.3 1022.8 0.5 S 2.8 SSE 0.0 45.1
07:30 22.0 22.4 72.1 1022.7 0.0 NNE 0.0 SSE 0.0 48.0
07:35 22.4 23.2 69.8 1022.9 1.4 NNE 4.6 NNE 0.0 50.4
07:40 22.9 23.8 68.0 1022.7 0.3 SSW 3.5 SSW 0.0 54.4
07:45 23.3 24.5 66.5 1022.9 1.8 S 4.2 SSW 0.0 56.7
07:50 23.4 25.0 67.8 1022.7 3.0 SW 5.0 SSW 0.0 58.2
07:55 23.1 25.6 68.2 1022.8 3.3 WSW 5.3 WSW 0.0 62.2
08:00 23.5 26.2 67.5 1022.8 3.2 SSW 5.3 SW 0.0 65.1
08:05 24.0 26.6 65.0 1022.7 1.7 SSE 3.5 S 0.0 71.9
08:10 24.4 27.1 63.4 1022.9 1.6 SSW 4.2 S 0.0 71.6
08:15 24.6 27.5 63.4 1022.7 2.9 S 5.7 SSW 0.0 76.2
08:20 24.6 28.0 62.2 1022.8 2.6 E 4.6 E 0.0 74.7
08:25 24.7 28.4 61.6 1022.7 1.5 SE 4.6 SE 0.0 78.2
08:30 25.1 28.8 61.2 1022.7 1.7 SSE 3.9 SSW 0.0 89.4
08:35 25.2 29.1 61.0 1023.0 0.7 NNE 2.8 NE 0.0 88.7
08:40 25.1 29.2 61.3 1022.7 0.8 SE 4.2 SE 0.0 116.6
08:45 26.1 29.8 59.1 1022.8 2.8 SW 5.7 SW 0.0 173.9
08:50 26.6 30.6 58.5 1022.8 3.3 S 6.4 S 0.0 198.2
08:55 26.8 31.3 55.5 1022.7 1.6 ESE 4.6 SSW 0.0 174.3
09:00 27.2 31.9 55.6 1022.9 3.0 SSE 7.1 ESE 0.0 115.5
09:05 27.0 32.4 54.7 1022.9 2.7 ESE 5.7 SE 0.0 154.7
Màxima 27.2 32.4 94.3 1023.0 3.3 S 7.1 ESE 0.0 282.8
Mínima 16.7 14.7 54.7 1021.3
Total 0.0